Ana Sayfa
METAR-TAF:

METAR-TAF

Havaalanları :

Asheboro Regional Airport

Asheboro, Kuzey Carolina, Amerika Birleşik Devletleri

Enlem: 35-39-14N, Boylam: 079-53-42W, yükseklik: 205 m

Güncel hava durumu gözlemi

Rapor saat 20:15 UTC de 17 dakika önce yapıldı.
Rüzgar kuzeydoğudan 5 kt
Sıcaklık 12°C
Nem 62%
Basınç 1008 hPa
Görüş mesafesi: 16.1 km
8000 ft yükseklikte çok bulutlu
hafif çisenti

METAR: KHBI 312015Z AUTO 05005KT 10SM -DZ OVC080 12/05 A2976 RMK AO2 T01210047

Saat: 16:32 (20:32 UTC)


TAF: eksik

4.000'den fazla havaalanı için hava durumu gözlemleri ve tahminleri (METAR ve TAF raporları).

Kullanılabilir istasyonlar harita üzerinde sarı ve kırmızı noktalarla gösterilir.

İstasyonun adını görmek için fareyi noktanın üzerinde gezdirin.

Sonrasında hava gözlem ve tahminlerini görmek için tıklayın.

Haritayı değiştirmek için: yaklaştırmak için siyah artı işaretli yeşil düğmeye ve uzaklaştırmak için de eksi işaretli düğmeye hızla tıklayın; bitişik haritalar için yeşil okları kullanın.


METAR-TAF: